createdAt,value
2023-05-03T00:00:21.083Z,5.07
2023-05-03T00:02:48.023Z,4.40
2023-05-03T00:05:15.353Z,4.80
2023-05-03T00:07:44.036Z,4.30
2023-05-03T00:10:21.037Z,4.28
2023-05-03T00:12:47.790Z,4.22
2023-05-03T00:15:14.571Z,4.32
2023-05-03T00:17:41.422Z,4.43
2023-05-03T00:20:09.687Z,4.45
2023-05-03T00:22:36.861Z,4.22
2023-05-03T00:25:04.749Z,4.35
2023-05-03T00:27:31.569Z,4.68
2023-05-03T00:29:58.355Z,4.32
2023-05-03T00:32:25.213Z,5.05
2023-05-03T00:34:58.184Z,5.07
2023-05-03T00:37:25.591Z,5.00
2023-05-03T00:39:52.697Z,3.80
2023-05-03T00:42:19.517Z,5.22
2023-05-03T00:44:46.273Z,4.18
2023-05-03T00:47:13.170Z,4.57
2023-05-03T00:49:40.194Z,4.10
2023-05-03T00:52:08.476Z,3.75
2023-05-03T00:54:36.024Z,3.47
2023-05-03T00:57:05.118Z,4.10
2023-05-03T00:59:34.453Z,4.35
2023-05-03T01:02:01.969Z,4.63
2023-05-03T01:04:29.442Z,3.60
2023-05-03T01:06:56.758Z,3.90
2023-05-03T01:09:39.614Z,3.78
2023-05-03T01:12:37.106Z,4.18
2023-05-03T01:15:23.095Z,3.72
2023-05-03T01:18:04.474Z,3.78
2023-05-03T01:20:34.709Z,3.80
2023-05-03T01:23:33.371Z,3.67
2023-05-03T01:26:00.193Z,3.95
2023-05-03T01:28:27.048Z,4.60
2023-05-03T01:30:54.621Z,4.35
2023-05-03T01:33:36.986Z,4.68
2023-05-03T01:36:20.928Z,3.78
2023-05-03T01:38:48.580Z,3.63
2023-05-03T01:41:19.778Z,3.75
2023-05-03T01:43:47.074Z,3.80
2023-05-03T01:46:14.164Z,3.97
2023-05-03T01:48:41.002Z,3.65
2023-05-03T01:51:07.744Z,4.30
2023-05-03T01:53:34.517Z,4.68
2023-05-03T01:56:01.236Z,4.35
2023-05-03T01:58:27.952Z,4.50
2023-05-03T02:00:54.886Z,4.60
2023-05-03T02:03:22.308Z,4.72
2023-05-03T02:05:49.057Z,4.82
2023-05-03T02:08:16.570Z,4.70
2023-05-03T02:10:46.484Z,4.70
2023-05-03T02:13:13.365Z,5.55
2023-05-03T02:15:40.144Z,5.40
2023-05-03T02:18:08.612Z,4.97
2023-05-03T02:20:37.869Z,5.07
2023-05-03T02:23:04.978Z,5.22
2023-05-03T02:25:32.086Z,5.20
2023-05-03T02:27:58.914Z,5.07
2023-05-03T02:30:25.692Z,5.18
2023-05-03T02:32:52.523Z,4.97
2023-05-03T02:35:19.340Z,4.90
2023-05-03T02:37:46.190Z,4.35
2023-05-03T02:40:13.015Z,4.50
2023-05-03T02:42:41.061Z,4.13
2023-05-03T02:45:08.127Z,4.05
2023-05-03T02:47:34.998Z,3.70
2023-05-03T02:50:02.142Z,3.80
2023-05-03T02:52:29.274Z,4.03
2023-05-03T02:54:56.113Z,4.00
2023-05-03T02:57:22.847Z,4.80
2023-05-03T02:59:49.630Z,3.97
2023-05-03T03:02:16.365Z,4.07
2023-05-03T03:04:43.109Z,4.38
2023-05-03T03:07:09.970Z,4.53
2023-05-03T03:09:36.693Z,4.22
2023-05-03T03:12:03.924Z,4.30
2023-05-03T03:14:30.745Z,3.80
2023-05-03T03:16:58.540Z,4.15
2023-05-03T03:19:25.406Z,4.13
2023-05-03T03:21:52.164Z,4.28
2023-05-03T03:24:18.898Z,4.40
2023-05-03T03:26:45.643Z,5.05
2023-05-03T03:29:12.369Z,4.38
2023-05-03T03:31:39.175Z,4.63
2023-05-03T03:34:05.927Z,4.25
2023-05-03T03:36:32.653Z,4.40
2023-05-03T03:38:59.407Z,4.00
2023-05-03T03:41:26.288Z,4.40
2023-05-03T03:43:52.977Z,4.32
2023-05-03T03:46:19.891Z,4.32
2023-05-03T03:48:46.737Z,3.75
2023-05-03T03:51:13.500Z,3.95
2023-05-03T03:53:40.339Z,4.20
2023-05-03T03:56:08.074Z,3.38
2023-05-03T03:58:35.009Z,3.80
2023-05-03T04:01:02.108Z,3.85
2023-05-03T04:03:28.929Z,3.63
2023-05-03T04:05:55.818Z,3.90
2023-05-03T04:08:22.887Z,3.92
2023-05-03T04:10:50.217Z,3.50
2023-05-03T04:13:17.016Z,4.07
2023-05-03T04:15:44.285Z,4.13
2023-05-03T04:18:11.749Z,3.83
2023-05-03T04:20:38.744Z,4.43
2023-05-03T04:23:05.489Z,3.70
2023-05-03T04:25:32.256Z,3.83
2023-05-03T04:27:59.192Z,4.20
2023-05-03T04:30:25.963Z,4.88
2023-05-03T04:32:55.448Z,4.50
2023-05-03T04:35:22.577Z,5.13
2023-05-03T04:37:49.340Z,5.25
2023-05-03T04:40:17.252Z,4.95
2023-05-03T04:42:44.388Z,5.13
2023-05-03T04:45:11.421Z,4.85
2023-05-03T04:47:38.454Z,5.15
2023-05-03T04:50:05.908Z,5.40
2023-05-03T04:52:32.930Z,5.43
2023-05-03T04:54:59.750Z,5.20
2023-05-03T04:57:26.487Z,5.68
2023-05-03T04:59:56.117Z,5.32
2023-05-03T05:02:23.185Z,5.53
2023-05-03T05:04:50.192Z,6.30
2023-05-03T05:07:17.933Z,6.55
2023-05-03T05:09:44.710Z,6.57
2023-05-03T05:12:11.891Z,6.70
2023-05-03T05:14:38.666Z,8.38
2023-05-03T05:17:05.656Z,10.85
2023-05-03T05:19:32.520Z,12.35
2023-05-03T05:21:59.269Z,12.75
2023-05-03T05:24:26.052Z,12.50
2023-05-03T05:26:52.843Z,14.25
2023-05-03T05:29:19.612Z,14.38
2023-05-03T05:31:46.458Z,14.10
2023-05-03T05:34:13.205Z,14.57
2023-05-03T05:36:39.954Z,14.13
2023-05-03T05:39:06.738Z,14.90
2023-05-03T05:41:33.829Z,14.43
2023-05-03T05:44:00.774Z,14.57
2023-05-03T05:46:27.583Z,14.80
2023-05-03T05:48:54.604Z,14.18
2023-05-03T05:51:21.423Z,13.05
2023-05-03T05:53:48.167Z,12.60
2023-05-03T05:56:15.182Z,12.60
2023-05-03T05:58:41.912Z,12.32
2023-05-03T06:01:09.177Z,11.98
2023-05-03T06:03:35.982Z,11.23
2023-05-03T06:06:02.922Z,12.18
2023-05-03T06:08:29.831Z,11.77
2023-05-03T06:10:56.590Z,12.60
2023-05-03T06:13:23.526Z,11.18
2023-05-03T06:15:50.336Z,12.18
2023-05-03T06:18:17.120Z,12.68
2023-05-03T06:20:43.886Z,12.13
2023-05-03T06:23:10.637Z,12.90
2023-05-03T06:25:37.369Z,13.00
2023-05-03T06:28:04.620Z,12.63
2023-05-03T06:30:31.583Z,12.98
2023-05-03T06:32:58.407Z,14.25
2023-05-03T06:35:25.142Z,15.02
2023-05-03T06:37:52.110Z,16.00
2023-05-03T06:40:19.071Z,15.52
2023-05-03T06:42:46.290Z,16.40
2023-05-03T06:45:13.182Z,16.52
2023-05-03T06:47:42.643Z,17.02
2023-05-03T06:50:10.531Z,17.90
2023-05-03T06:52:37.378Z,18.70
2023-05-03T06:55:04.870Z,16.05
2023-05-03T06:57:31.790Z,16.88
2023-05-03T06:59:58.816Z,18.83
2023-05-03T07:02:26.797Z,18.48
2023-05-03T07:04:53.674Z,18.45
2023-05-03T07:07:20.588Z,18.65
2023-05-03T07:09:47.452Z,18.67
2023-05-03T07:12:14.211Z,18.60
2023-05-03T07:14:41.068Z,18.02
2023-05-03T07:17:08.363Z,17.40
2023-05-03T07:19:35.321Z,17.70
2023-05-03T07:22:03.361Z,14.73
2023-05-03T07:24:30.221Z,16.00
2023-05-03T07:26:58.060Z,15.35
2023-05-03T07:29:24.782Z,15.10
2023-05-03T07:31:53.460Z,15.77
2023-05-03T07:34:20.876Z,14.90
2023-05-03T07:36:47.621Z,16.05
2023-05-03T07:39:14.404Z,16.88
2023-05-03T07:41:41.188Z,15.73
2023-05-03T07:44:08.142Z,16.58
2023-05-03T07:46:35.471Z,16.50
2023-05-03T07:49:04.100Z,16.33
2023-05-03T07:51:35.381Z,17.52
2023-05-03T07:54:02.217Z,17.08
2023-05-03T07:56:29.050Z,16.20
2023-05-03T07:59:07.528Z,16.52
2023-05-03T08:01:36.584Z,15.95
2023-05-03T08:04:04.671Z,14.63
2023-05-03T08:06:32.549Z,16.65
2023-05-03T08:08:59.319Z,15.48
2023-05-03T08:11:28.747Z,15.80
2023-05-03T08:13:55.622Z,15.80
2023-05-03T08:16:22.459Z,15.27
2023-05-03T08:18:49.164Z,15.93
2023-05-03T08:21:17.489Z,14.90
2023-05-03T08:23:44.973Z,16.75
2023-05-03T08:26:14.167Z,15.05
2023-05-03T08:28:41.207Z,16.00
2023-05-03T08:31:08.056Z,15.60
2023-05-03T08:33:34.897Z,16.42
2023-05-03T08:36:01.750Z,15.15
2023-05-03T08:38:28.942Z,15.65
2023-05-03T08:40:58.578Z,16.25
2023-05-03T08:43:28.145Z,15.80
2023-05-03T08:45:54.955Z,14.90
2023-05-03T08:48:22.269Z,15.43
2023-05-03T08:50:51.695Z,15.35
2023-05-03T08:53:18.595Z,15.37
2023-05-03T08:55:45.714Z,15.77
2023-05-03T08:58:13.535Z,16.30
2023-05-03T09:00:44.647Z,15.45
2023-05-03T09:03:11.956Z,15.70
2023-05-03T09:05:40.469Z,16.33
2023-05-03T09:08:09.402Z,14.95
2023-05-03T09:10:41.959Z,16.33
2023-05-03T09:13:09.964Z,14.98
2023-05-03T09:15:37.260Z,15.43
2023-05-03T09:18:18.385Z,14.93
2023-05-03T09:20:55.988Z,13.40
2023-05-03T09:23:26.466Z,13.63
2023-05-03T09:25:53.357Z,14.48
2023-05-03T09:28:20.897Z,15.48
2023-05-03T09:30:48.841Z,13.85
2023-05-03T09:33:22.994Z,12.68
2023-05-03T09:35:57.959Z,13.20
2023-05-03T09:38:32.371Z,11.63
2023-05-03T09:40:59.523Z,14.35
2023-05-03T09:43:26.372Z,13.35
2023-05-03T09:45:53.149Z,12.60
2023-05-03T09:48:23.657Z,11.73
2023-05-03T09:50:51.658Z,11.57
2023-05-03T09:53:21.455Z,9.93
2023-05-03T09:55:50.912Z,10.40
2023-05-03T09:58:19.052Z,11.60
2023-05-03T10:00:46.532Z,10.40
2023-05-03T10:03:20.111Z,11.30
2023-05-03T10:05:48.507Z,11.85
2023-05-03T10:08:27.198Z,11.63
2023-05-03T10:10:54.391Z,11.10
2023-05-03T10:13:23.097Z,12.18
2023-05-03T10:16:12.733Z,11.20
2023-05-03T10:18:47.992Z,10.77
2023-05-03T10:21:35.090Z,11.90
2023-05-03T10:24:16.401Z,11.23
2023-05-03T10:26:46.416Z,11.93
2023-05-03T10:29:35.222Z,12.00
2023-05-03T10:32:05.774Z,11.13
2023-05-03T10:34:39.610Z,11.35
2023-05-03T10:37:10.301Z,10.93
2023-05-03T10:39:37.191Z,9.10
2023-05-03T10:42:08.936Z,11.10
2023-05-03T10:44:52.327Z,11.05
2023-05-03T10:47:24.805Z,12.52
2023-05-03T10:50:11.477Z,13.63
2023-05-03T10:52:38.445Z,12.07
2023-05-03T10:55:14.150Z,11.05
2023-05-03T10:57:42.810Z,12.48
2023-05-03T11:00:14.126Z,13.40
2023-05-03T11:02:56.173Z,14.13
2023-05-03T11:05:24.761Z,12.73
2023-05-03T11:07:51.479Z,13.20
2023-05-03T11:10:19.567Z,15.00
2023-05-03T11:12:46.268Z,15.40
2023-05-03T11:15:13.197Z,15.18
2023-05-03T11:17:42.336Z,16.05
2023-05-03T11:20:09.918Z,14.18
2023-05-03T11:22:37.809Z,14.40
2023-05-03T11:25:05.189Z,15.02
2023-05-03T11:27:32.071Z,15.00
2023-05-03T11:29:59.372Z,13.95
2023-05-03T11:32:27.837Z,11.63
2023-05-03T11:34:54.659Z,13.68
2023-05-03T11:37:21.351Z,12.77
2023-05-03T11:39:48.118Z,11.63
2023-05-03T11:42:15.210Z,14.95
2023-05-03T11:44:41.951Z,14.10
2023-05-03T11:47:09.416Z,13.55
2023-05-03T11:49:36.374Z,13.30
2023-05-03T11:52:03.753Z,14.57
2023-05-03T11:54:30.943Z,10.85
2023-05-03T11:56:59.709Z,9.88
2023-05-03T11:59:40.720Z,13.27
2023-05-03T12:02:10.501Z,13.77
2023-05-03T12:04:43.009Z,14.00
2023-05-03T12:07:13.076Z,13.73
2023-05-03T12:09:41.699Z,12.07
2023-05-03T12:12:13.793Z,12.52
2023-05-03T12:15:03.878Z,12.43
2023-05-03T12:17:43.021Z,10.00
2023-05-03T12:25:26.064Z,12.90
2023-05-03T12:28:15.017Z,13.10
2023-05-03T12:30:41.193Z,13.93
2023-05-03T12:33:10.081Z,11.25
2023-05-03T12:35:40.593Z,12.57
2023-05-03T12:38:09.728Z,9.50
2023-05-03T12:40:39.179Z,10.52
2023-05-03T12:43:06.553Z,11.02
2023-05-03T12:45:34.378Z,9.93
2023-05-03T12:48:02.874Z,10.90
2023-05-03T12:50:31.895Z,10.68
2023-05-03T12:53:02.339Z,9.95
2023-05-03T12:55:34.437Z,9.35
2023-05-03T13:00:36.617Z,13.13
2023-05-03T13:05:36.171Z,10.02
2023-05-03T13:08:09.089Z,11.00
2023-05-03T13:10:37.632Z,11.98
2023-05-03T13:13:04.952Z,12.35
2023-05-03T13:15:31.752Z,12.10
2023-05-03T13:18:01.576Z,11.20
2023-05-03T13:20:28.962Z,11.93
2023-05-03T13:22:55.966Z,9.80
2023-05-03T13:25:22.744Z,9.93
2023-05-03T13:27:52.221Z,8.75
2023-05-03T13:30:23.279Z,9.00
2023-05-03T13:32:51.189Z,8.50
2023-05-03T13:35:18.428Z,8.68
2023-05-03T13:37:45.274Z,8.25
2023-05-03T13:40:14.363Z,9.40
2023-05-03T13:42:41.465Z,9.88
2023-05-03T13:45:09.056Z,8.95
2023-05-03T13:48:00.104Z,7.55
2023-05-03T13:50:23.433Z,9.20
2023-05-03T13:52:50.215Z,9.10
2023-05-03T13:55:16.951Z,10.07
2023-05-03T13:57:44.244Z,9.10
2023-05-03T14:00:12.208Z,8.70
2023-05-03T14:02:39.012Z,9.63
2023-05-03T14:05:06.828Z,9.50
2023-05-03T14:07:33.586Z,9.25
2023-05-03T14:10:00.368Z,10.32
2023-05-03T14:12:27.716Z,9.13
2023-05-03T14:14:54.646Z,7.72
2023-05-03T14:17:21.616Z,8.40
2023-05-03T14:19:48.568Z,9.30
2023-05-03T14:22:15.334Z,9.35
2023-05-03T14:24:42.621Z,8.07
2023-05-03T14:27:09.391Z,7.93
2023-05-03T14:29:36.148Z,7.22
2023-05-03T14:32:02.880Z,7.25
2023-05-03T14:34:29.585Z,7.00
2023-05-03T14:36:56.399Z,6.03
2023-05-03T14:39:23.110Z,6.53
2023-05-03T14:41:51.036Z,7.10
2023-05-03T14:44:17.862Z,7.05
2023-05-03T14:46:44.659Z,6.50
2023-05-03T14:49:11.405Z,5.93
2023-05-03T14:51:38.177Z,5.15
2023-05-03T14:54:05.041Z,5.55
2023-05-03T14:56:32.317Z,6.00
2023-05-03T14:59:00.770Z,6.28
2023-05-03T15:01:27.663Z,6.90
2023-05-03T15:03:54.449Z,7.20
2023-05-03T15:06:26.504Z,7.53
2023-05-03T15:08:54.073Z,7.90
2023-05-03T15:11:21.579Z,8.10
2023-05-03T15:13:48.408Z,8.25
2023-05-03T15:16:15.434Z,8.18
2023-05-03T15:18:43.996Z,8.05
2023-05-03T15:21:12.782Z,7.30
2023-05-03T15:23:39.508Z,7.13
2023-05-03T15:26:06.353Z,7.18
2023-05-03T15:28:33.242Z,7.22
2023-05-03T15:30:59.968Z,7.22
2023-05-03T15:33:26.907Z,7.07
2023-05-03T15:35:55.336Z,6.78
2023-05-03T15:38:22.241Z,7.18
2023-05-03T15:40:48.927Z,8.38
2023-05-03T15:43:16.048Z,7.40
2023-05-03T15:45:42.821Z,8.07
2023-05-03T15:48:09.639Z,7.40
2023-05-03T15:50:36.463Z,7.75
2023-05-03T15:53:03.801Z,7.47
2023-05-03T15:55:30.609Z,7.05
2023-05-03T15:57:58.588Z,6.60
2023-05-03T16:00:25.338Z,6.68
2023-05-03T16:02:53.017Z,6.35
2023-05-03T16:05:20.237Z,6.35
2023-05-03T16:07:47.194Z,5.90
2023-05-03T16:10:15.004Z,6.57
2023-05-03T16:12:42.891Z,7.10
2023-05-03T16:15:10.362Z,6.70
2023-05-03T16:17:37.179Z,6.88
2023-05-03T16:20:05.733Z,6.70
2023-05-03T16:22:32.639Z,7.00
2023-05-03T16:24:59.325Z,6.90
2023-05-03T16:27:26.043Z,7.75
2023-05-03T16:29:52.769Z,6.80
2023-05-03T16:32:19.489Z,6.75
2023-05-03T16:34:46.754Z,7.10
2023-05-03T16:37:14.210Z,6.90
2023-05-03T16:39:40.965Z,7.00
2023-05-03T16:42:07.744Z,7.57
2023-05-03T16:44:34.516Z,6.97
2023-05-03T16:47:01.294Z,7.88
2023-05-03T16:49:28.138Z,7.15
2023-05-03T16:51:56.606Z,6.47
2023-05-03T16:54:23.749Z,6.40
2023-05-03T16:56:51.879Z,6.00
2023-05-03T16:59:19.273Z,6.15
2023-05-03T17:01:46.211Z,5.65
2023-05-03T17:04:13.973Z,5.28
2023-05-03T17:06:40.878Z,5.80
2023-05-03T17:09:07.627Z,4.97
2023-05-03T17:11:36.080Z,4.88
2023-05-03T17:14:02.799Z,5.00
2023-05-03T17:16:29.723Z,5.57
2023-05-03T17:18:56.538Z,6.00
2023-05-03T17:21:24.313Z,4.97
2023-05-03T17:23:51.515Z,4.88
2023-05-03T17:26:21.240Z,5.93
2023-05-03T17:28:48.559Z,4.97
2023-05-03T17:31:15.562Z,5.38
2023-05-03T17:33:42.297Z,5.15
2023-05-03T17:36:09.258Z,6.15
2023-05-03T17:38:36.147Z,4.88
2023-05-03T17:41:05.648Z,4.60
2023-05-03T17:43:32.466Z,5.37
2023-05-03T17:46:06.926Z,4.60
2023-05-03T17:48:33.623Z,4.70
2023-05-03T17:51:00.354Z,5.07
2023-05-03T17:53:27.850Z,5.03
2023-05-03T17:55:54.614Z,4.00
2023-05-03T17:58:21.323Z,4.47
2023-05-03T18:00:48.817Z,4.55
2023-05-03T18:03:17.035Z,4.85
2023-05-03T18:05:44.790Z,5.20
2023-05-03T18:08:14.912Z,5.40
2023-05-03T18:10:43.112Z,4.80
2023-05-03T18:13:10.636Z,5.68
2023-05-03T18:15:41.380Z,5.00
2023-05-03T18:18:08.719Z,5.32
2023-05-03T18:20:35.797Z,5.45
2023-05-03T18:23:02.689Z,5.22
2023-05-03T18:25:29.840Z,6.45
2023-05-03T18:27:57.330Z,5.45
2023-05-03T18:30:27.926Z,5.93
2023-05-03T18:32:55.801Z,5.18
2023-05-03T18:35:22.859Z,6.40
2023-05-03T18:37:49.777Z,5.68
2023-05-03T18:40:17.035Z,5.50
2023-05-03T18:42:43.882Z,6.20
2023-05-03T18:45:11.369Z,5.20
2023-05-03T18:47:38.166Z,5.32
2023-05-03T18:50:05.701Z,5.25
2023-05-03T18:52:32.629Z,4.90
2023-05-03T18:54:59.440Z,5.15
2023-05-03T18:57:27.219Z,5.60
2023-05-03T19:00:01.075Z,5.18
2023-05-03T19:02:31.302Z,5.72
2023-05-03T19:04:58.948Z,6.53
2023-05-03T19:07:25.845Z,7.03
2023-05-03T19:09:57.149Z,6.82
2023-05-03T19:12:24.014Z,6.53
2023-05-03T19:14:50.807Z,6.50
2023-05-03T19:17:17.549Z,8.00
2023-05-03T19:19:44.434Z,8.02
2023-05-03T19:22:11.255Z,8.00
2023-05-03T19:24:39.761Z,7.38
2023-05-03T19:27:06.512Z,8.60
2023-05-03T19:29:33.244Z,7.85
2023-05-03T19:31:59.916Z,7.53
2023-05-03T19:34:27.986Z,7.93
2023-05-03T19:36:54.992Z,8.48
2023-05-03T19:39:21.751Z,9.10
2023-05-03T19:41:48.898Z,7.78
2023-05-03T19:44:16.002Z,9.23
2023-05-03T19:46:42.829Z,7.43
2023-05-03T19:49:09.683Z,9.60
2023-05-03T19:51:36.381Z,9.05
2023-05-03T19:54:03.463Z,9.30
2023-05-03T19:56:30.355Z,8.73
2023-05-03T19:58:57.211Z,9.82
2023-05-03T20:01:24.045Z,9.18
2023-05-03T20:03:53.266Z,8.25
2023-05-03T20:06:20.486Z,9.77
2023-05-03T20:08:47.288Z,8.90
2023-05-03T20:11:14.096Z,9.63
2023-05-03T20:13:40.825Z,9.00
2023-05-03T20:16:08.333Z,9.20
2023-05-03T20:18:35.343Z,8.30
2023-05-03T20:21:03.411Z,8.15
2023-05-03T20:23:30.482Z,9.52
2023-05-03T20:25:57.318Z,8.77
2023-05-03T20:28:24.332Z,9.50
2023-05-03T20:30:51.327Z,9.73
2023-05-03T20:33:18.133Z,10.20
2023-05-03T20:35:44.906Z,9.65
2023-05-03T20:38:11.708Z,10.30
2023-05-03T20:40:38.734Z,9.65
2023-05-03T20:43:05.711Z,9.65
2023-05-03T20:45:32.856Z,10.32
2023-05-03T20:47:59.651Z,9.63
2023-05-03T20:50:26.466Z,12.25
2023-05-03T20:52:54.514Z,11.32
2023-05-03T20:55:21.259Z,10.20
2023-05-03T20:57:48.096Z,10.27
2023-05-03T21:00:17.645Z,9.85
2023-05-03T21:02:44.945Z,10.63
2023-05-03T21:05:11.877Z,9.27
2023-05-03T21:07:38.727Z,10.43
2023-05-03T21:10:07.447Z,10.73
2023-05-03T21:12:34.822Z,10.70
2023-05-03T21:15:01.861Z,10.05
2023-05-03T21:17:28.597Z,9.52
2023-05-03T21:19:55.766Z,9.85
2023-05-03T21:22:22.701Z,9.98
2023-05-03T21:24:50.073Z,9.27
2023-05-03T21:27:19.152Z,9.70
2023-05-03T21:29:46.258Z,9.30
2023-05-03T21:32:13.285Z,9.98
2023-05-03T21:34:40.115Z,10.30
2023-05-03T21:37:07.248Z,9.25
2023-05-03T21:39:34.016Z,9.32
2023-05-03T21:42:00.737Z,8.32
2023-05-03T21:44:27.559Z,10.13
2023-05-03T21:46:54.273Z,10.07
2023-05-03T21:49:21.014Z,9.75
2023-05-03T21:51:47.903Z,9.70
2023-05-03T21:54:15.898Z,8.63
2023-05-03T21:56:42.596Z,8.98
2023-05-03T21:59:09.301Z,8.15
2023-05-03T22:01:36.103Z,8.52
2023-05-03T22:04:03.059Z,9.27
2023-05-03T22:06:31.110Z,10.23
2023-05-03T22:08:58.186Z,10.88
2023-05-03T22:11:24.984Z,9.38
2023-05-03T22:14:06.873Z,9.00
2023-05-03T22:16:34.487Z,8.90
2023-05-03T22:19:01.320Z,9.80
2023-05-03T22:21:28.075Z,9.63
2023-05-03T22:23:54.854Z,8.57
2023-05-03T22:26:21.730Z,8.90
2023-05-03T22:28:48.650Z,8.48
2023-05-03T22:31:15.443Z,9.00
2023-05-03T22:33:44.863Z,9.30
2023-05-03T22:36:12.394Z,10.27
2023-05-03T22:38:41.275Z,9.60
2023-05-03T22:41:09.585Z,10.07
2023-05-03T22:43:36.525Z,9.80
2023-05-03T22:46:04.001Z,9.20
2023-05-03T22:48:32.358Z,9.18
2023-05-03T22:50:59.759Z,8.60
2023-05-03T22:53:26.526Z,10.10
2023-05-03T22:56:01.393Z,11.13
2023-05-03T22:58:28.776Z,10.10
2023-05-03T23:00:55.815Z,10.32
2023-05-03T23:03:22.889Z,10.38
2023-05-03T23:05:52.326Z,10.25
2023-05-03T23:08:19.626Z,10.88
2023-05-03T23:10:46.539Z,9.70
2023-05-03T23:13:13.476Z,10.95
2023-05-03T23:15:40.325Z,11.50
2023-05-03T23:18:07.295Z,11.43
2023-05-03T23:20:34.364Z,11.25
2023-05-03T23:23:01.121Z,10.30
2023-05-03T23:25:27.877Z,10.95
2023-05-03T23:27:54.630Z,9.90
2023-05-03T23:30:21.712Z,10.10
2023-05-03T23:32:49.195Z,10.00
2023-05-03T23:35:17.630Z,10.07
2023-05-03T23:37:44.408Z,9.65
2023-05-03T23:40:12.864Z,10.07
2023-05-03T23:42:41.154Z,11.23
2023-05-03T23:45:09.646Z,10.20
2023-05-03T23:47:36.962Z,11.02
2023-05-03T23:50:04.565Z,10.25
2023-05-03T23:52:31.541Z,10.82
2023-05-03T23:54:58.351Z,9.25
2023-05-03T23:57:25.219Z,10.00
2023-05-03T23:59:51.984Z,10.77
